sensor_id;sensor_type;location;lat;lon;timestamp;P1;durP1;ratioP1;P2;durP2;ratioP2
76292;SDS011;67256;51.154;4.164;2023-02-18T00:01:10;20.00;;;16.05;;
76292;SDS011;67256;51.154;4.164;2023-02-18T00:03:39;20.30;;;15.05;;
76292;SDS011;67256;51.154;4.164;2023-02-18T00:06:16;23.42;;;15.23;;
76292;SDS011;67256;51.154;4.164;2023-02-18T00:08:47;19.33;;;15.75;;
76292;SDS011;67256;51.154;4.164;2023-02-18T00:11:14;19.98;;;16.50;;
76292;SDS011;67256;51.154;4.164;2023-02-18T00:13:40;24.02;;;16.75;;
76292;SDS011;67256;51.154;4.164;2023-02-18T00:16:08;20.35;;;15.52;;
76292;SDS011;67256;51.154;4.164;2023-02-18T00:18:36;23.17;;;16.58;;
76292;SDS011;67256;51.154;4.164;2023-02-18T00:21:03;21.60;;;15.85;;
76292;SDS011;67256;51.154;4.164;2023-02-18T00:23:30;20.42;;;15.48;;
76292;SDS011;67256;51.154;4.164;2023-02-18T00:25:58;20.40;;;14.85;;
76292;SDS011;67256;51.154;4.164;2023-02-18T00:28:25;19.30;;;14.35;;
76292;SDS011;67256;51.154;4.164;2023-02-18T00:30:51;20.98;;;14.55;;
76292;SDS011;67256;51.154;4.164;2023-02-18T00:33:17;21.25;;;14.68;;
76292;SDS011;67256;51.154;4.164;2023-02-18T00:35:42;17.88;;;14.27;;
76292;SDS011;67256;51.154;4.164;2023-02-18T00:38:08;19.25;;;14.90;;
76292;SDS011;67256;51.154;4.164;2023-02-18T00:40:38;17.85;;;12.75;;
76292;SDS011;67256;51.154;4.164;2023-02-18T00:43:05;17.67;;;13.95;;
76292;SDS011;67256;51.154;4.164;2023-02-18T00:45:31;15.38;;;11.85;;
76292;SDS011;67256;51.154;4.164;2023-02-18T00:47:57;18.15;;;12.48;;
76292;SDS011;67256;51.154;4.164;2023-02-18T00:50:22;20.15;;;12.57;;
76292;SDS011;67256;51.154;4.164;2023-02-18T00:52:48;14.20;;;11.70;;
76292;SDS011;67256;51.154;4.164;2023-02-18T00:55:14;15.18;;;12.48;;
76292;SDS011;67256;51.154;4.164;2023-02-18T00:57:40;14.95;;;11.57;;
76292;SDS011;67256;51.154;4.164;2023-02-18T01:00:06;14.05;;;10.23;;
76292;SDS011;67256;51.154;4.164;2023-02-18T01:02:33;14.45;;;10.75;;
76292;SDS011;67256;51.154;4.164;2023-02-18T01:04:59;14.75;;;10.35;;
76292;SDS011;67256;51.154;4.164;2023-02-18T01:07:26;11.32;;;10.13;;
76292;SDS011;67256;51.154;4.164;2023-02-18T01:09:52;12.98;;;9.70;;
76292;SDS011;67256;51.154;4.164;2023-02-18T01:12:17;15.07;;;10.50;;
76292;SDS011;67256;51.154;4.164;2023-02-18T01:14:43;13.30;;;9.98;;
76292;SDS011;67256;51.154;4.164;2023-02-18T01:17:09;13.00;;;10.40;;
76292;SDS011;67256;51.154;4.164;2023-02-18T01:19:35;14.32;;;10.20;;
76292;SDS011;67256;51.154;4.164;2023-02-18T01:22:01;11.40;;;9.60;;
76292;SDS011;67256;51.154;4.164;2023-02-18T01:24:27;13.25;;;10.00;;
76292;SDS011;67256;51.154;4.164;2023-02-18T01:26:53;14.60;;;9.90;;
76292;SDS011;67256;51.154;4.164;2023-02-18T01:29:19;12.38;;;9.90;;
76292;SDS011;67256;51.154;4.164;2023-02-18T01:31:45;18.35;;;11.60;;
76292;SDS011;67256;51.154;4.164;2023-02-18T01:34:10;14.48;;;10.13;;
76292;SDS011;67256;51.154;4.164;2023-02-18T01:36:36;14.30;;;10.20;;
76292;SDS011;67256;51.154;4.164;2023-02-18T01:39:03;15.35;;;9.77;;
76292;SDS011;67256;51.154;4.164;2023-02-18T01:41:30;14.80;;;10.13;;
76292;SDS011;67256;51.154;4.164;2023-02-18T01:46:45;16.42;;;9.93;;
76292;SDS011;67256;51.154;4.164;2023-02-18T01:49:13;13.15;;;10.43;;
76292;SDS011;67256;51.154;4.164;2023-02-18T01:51:51;17.77;;;8.98;;
76292;SDS011;67256;51.154;4.164;2023-02-18T01:54:31;15.98;;;10.38;;
76292;SDS011;67256;51.154;4.164;2023-02-18T01:57:05;14.45;;;9.55;;
76292;SDS011;67256;51.154;4.164;2023-02-18T01:59:38;13.35;;;10.05;;
76292;SDS011;67256;51.154;4.164;2023-02-18T02:02:07;11.18;;;8.88;;
76292;SDS011;67256;51.154;4.164;2023-02-18T02:04:38;13.02;;;9.48;;
76292;SDS011;67256;51.154;4.164;2023-02-18T02:07:04;13.73;;;10.05;;
76292;SDS011;67256;51.154;4.164;2023-02-18T02:09:30;12.00;;;9.68;;
76292;SDS011;67256;51.154;4.164;2023-02-18T02:15:08;11.90;;;8.57;;
76292;SDS011;67256;51.154;4.164;2023-02-18T02:21:19;10.68;;;8.02;;
76292;SDS011;67256;51.154;4.164;2023-02-18T02:46:55;7.47;;;6.22;;
76292;SDS011;67256;51.154;4.164;2023-02-18T02:49:48;7.88;;;6.10;;
76292;SDS011;67256;51.154;4.164;2023-02-18T02:52:35;6.70;;;6.03;;
76292;SDS011;67256;51.154;4.164;2023-02-18T02:55:09;7.68;;;6.20;;
76292;SDS011;67256;51.154;4.164;2023-02-18T03:00:04;9.60;;;6.30;;
76292;SDS011;67256;51.154;4.164;2023-02-18T03:11:10;7.13;;;5.00;;
76292;SDS011;67256;51.154;4.164;2023-02-18T03:16:20;7.57;;;4.65;;
76292;SDS011;67256;51.154;4.164;2023-02-18T03:19:01;4.72;;;3.85;;
76292;SDS011;67256;51.154;4.164;2023-02-18T03:21:32;5.72;;;4.50;;
76292;SDS011;67256;51.154;4.164;2023-02-18T03:26:41;6.22;;;4.10;;
76292;SDS011;67256;51.154;4.164;2023-02-18T03:29:12;4.35;;;3.95;;
76292;SDS011;67256;51.154;4.164;2023-02-18T03:31:42;4.43;;;3.22;;
76292;SDS011;67256;51.154;4.164;2023-02-18T03:34:15;3.88;;;3.05;;
76292;SDS011;67256;51.154;4.164;2023-02-18T03:36:44;3.40;;;2.78;;
76292;SDS011;67256;51.154;4.164;2023-02-18T03:39:12;4.38;;;2.70;;
76292;SDS011;67256;51.154;4.164;2023-02-18T03:41:40;3.60;;;3.00;;
76292;SDS011;67256;51.154;4.164;2023-02-18T03:44:08;3.55;;;2.72;;
76292;SDS011;67256;51.154;4.164;2023-02-18T03:46:37;3.28;;;2.70;;
76292;SDS011;67256;51.154;4.164;2023-02-18T03:49:07;3.45;;;2.65;;
76292;SDS011;67256;51.154;4.164;2023-02-18T03:51:34;5.40;;;2.85;;
76292;SDS011;67256;51.154;4.164;2023-02-18T03:54:00;4.10;;;2.40;;
76292;SDS011;67256;51.154;4.164;2023-02-18T03:56:25;4.95;;;2.78;;
76292;SDS011;67256;51.154;4.164;2023-02-18T03:58:51;3.45;;;2.45;;
76292;SDS011;67256;51.154;4.164;2023-02-18T04:01:17;4.97;;;2.83;;
76292;SDS011;67256;51.154;4.164;2023-02-18T04:03:43;3.55;;;2.38;;
76292;SDS011;67256;51.154;4.164;2023-02-18T04:06:09;3.15;;;2.22;;
76292;SDS011;67256;51.154;4.164;2023-02-18T04:08:35;3.58;;;2.25;;
76292;SDS011;67256;51.154;4.164;2023-02-18T04:11:01;4.63;;;3.53;;
76292;SDS011;67256;51.154;4.164;2023-02-18T04:13:27;6.30;;;3.35;;
76292;SDS011;67256;51.154;4.164;2023-02-18T04:15:53;3.97;;;3.00;;
76292;SDS011;67256;51.154;4.164;2023-02-18T04:18:19;5.57;;;3.67;;
76292;SDS011;67256;51.154;4.164;2023-02-18T04:20:45;4.30;;;3.20;;
76292;SDS011;67256;51.154;4.164;2023-02-18T04:23:11;5.30;;;3.10;;
76292;SDS011;67256;51.154;4.164;2023-02-18T04:25:37;5.43;;;3.13;;
76292;SDS011;67256;51.154;4.164;2023-02-18T04:28:04;4.70;;;3.17;;
76292;SDS011;67256;51.154;4.164;2023-02-18T04:30:29;5.45;;;3.03;;
76292;SDS011;67256;51.154;4.164;2023-02-18T04:32:55;3.60;;;2.90;;
76292;SDS011;67256;51.154;4.164;2023-02-18T04:35:21;5.25;;;3.75;;
76292;SDS011;67256;51.154;4.164;2023-02-18T04:37:47;4.43;;;3.03;;
76292;SDS011;67256;51.154;4.164;2023-02-18T04:40:13;4.13;;;3.33;;
76292;SDS011;67256;51.154;4.164;2023-02-18T04:42:39;3.42;;;2.83;;
76292;SDS011;67256;51.154;4.164;2023-02-18T04:45:06;5.03;;;3.05;;
76292;SDS011;67256;51.154;4.164;2023-02-18T04:47:32;3.65;;;2.75;;
76292;SDS011;67256;51.154;4.164;2023-02-18T04:49:58;3.63;;;3.00;;
76292;SDS011;67256;51.154;4.164;2023-02-18T04:52:23;4.05;;;3.33;;
76292;SDS011;67256;51.154;4.164;2023-02-18T04:54:50;3.70;;;3.10;;
76292;SDS011;67256;51.154;4.164;2023-02-18T04:57:15;3.85;;;2.67;;
76292;SDS011;67256;51.154;4.164;2023-02-18T04:59:41;5.25;;;3.50;;
76292;SDS011;67256;51.154;4.164;2023-02-18T05:02:07;3.85;;;3.03;;
76292;SDS011;67256;51.154;4.164;2023-02-18T05:04:33;3.42;;;2.90;;
76292;SDS011;67256;51.154;4.164;2023-02-18T05:06:59;5.28;;;3.42;;
76292;SDS011;67256;51.154;4.164;2023-02-18T05:09:25;4.22;;;3.50;;
76292;SDS011;67256;51.154;4.164;2023-02-18T05:11:51;4.00;;;3.30;;
76292;SDS011;67256;51.154;4.164;2023-02-18T05:14:16;4.72;;;3.55;;
76292;SDS011;67256;51.154;4.164;2023-02-18T05:16:42;5.68;;;4.32;;
76292;SDS011;67256;51.154;4.164;2023-02-18T05:19:09;4.72;;;3.58;;
76292;SDS011;67256;51.154;4.164;2023-02-18T05:21:41;6.50;;;4.28;;
76292;SDS011;67256;51.154;4.164;2023-02-18T05:24:07;5.18;;;3.97;;
76292;SDS011;67256;51.154;4.164;2023-02-18T05:26:34;4.90;;;3.90;;
76292;SDS011;67256;51.154;4.164;2023-02-18T05:28:59;4.65;;;4.22;;
76292;SDS011;67256;51.154;4.164;2023-02-18T05:31:25;4.60;;;3.67;;
76292;SDS011;67256;51.154;4.164;2023-02-18T05:33:51;5.47;;;3.95;;
76292;SDS011;67256;51.154;4.164;2023-02-18T05:36:17;8.23;;;3.92;;
76292;SDS011;67256;51.154;4.164;2023-02-18T05:38:43;6.13;;;3.90;;
76292;SDS011;67256;51.154;4.164;2023-02-18T05:41:08;6.22;;;3.65;;
76292;SDS011;67256;51.154;4.164;2023-02-18T05:43:34;5.70;;;3.30;;
76292;SDS011;67256;51.154;4.164;2023-02-18T05:46:20;4.80;;;3.33;;
76292;SDS011;67256;51.154;4.164;2023-02-18T05:48:46;6.63;;;3.25;;
76292;SDS011;67256;51.154;4.164;2023-02-18T05:51:12;5.55;;;2.97;;
76292;SDS011;67256;51.154;4.164;2023-02-18T05:53:38;7.00;;;2.97;;
76292;SDS011;67256;51.154;4.164;2023-02-18T05:56:04;7.55;;;3.03;;
76292;SDS011;67256;51.154;4.164;2023-02-18T05:58:30;11.27;;;2.63;;
76292;SDS011;67256;51.154;4.164;2023-02-18T06:00:56;11.07;;;2.70;;
76292;SDS011;67256;51.154;4.164;2023-02-18T06:03:22;10.75;;;2.22;;
76292;SDS011;67256;51.154;4.164;2023-02-18T06:05:49;10.23;;;2.05;;
76292;SDS011;67256;51.154;4.164;2023-02-18T06:08:16;18.80;;;2.85;;
76292;SDS011;67256;51.154;4.164;2023-02-18T06:10:44;13.15;;;2.83;;
76292;SDS011;67256;51.154;4.164;2023-02-18T06:13:10;15.57;;;2.90;;
76292;SDS011;67256;51.154;4.164;2023-02-18T06:15:36;11.07;;;2.20;;
76292;SDS011;67256;51.154;4.164;2023-02-18T06:18:03;13.98;;;2.42;;
76292;SDS011;67256;51.154;4.164;2023-02-18T06:20:30;9.05;;;2.00;;
76292;SDS011;67256;51.154;4.164;2023-02-18T06:22:56;11.25;;;1.98;;
76292;SDS011;67256;51.154;4.164;2023-02-18T06:25:22;11.07;;;2.38;;
76292;SDS011;67256;51.154;4.164;2023-02-18T06:27:49;11.80;;;2.45;;
76292;SDS011;67256;51.154;4.164;2023-02-18T06:30:14;13.70;;;2.28;;
76292;SDS011;67256;51.154;4.164;2023-02-18T06:32:41;9.40;;;2.35;;
76292;SDS011;67256;51.154;4.164;2023-02-18T06:35:07;10.68;;;2.55;;
76292;SDS011;67256;51.154;4.164;2023-02-18T06:37:33;10.25;;;2.80;;
76292;SDS011;67256;51.154;4.164;2023-02-18T06:39:59;11.27;;;2.40;;
76292;SDS011;67256;51.154;4.164;2023-02-18T06:42:25;18.13;;;4.03;;
76292;SDS011;67256;51.154;4.164;2023-02-18T06:44:50;12.07;;;2.13;;
76292;SDS011;67256;51.154;4.164;2023-02-18T06:47:16;16.40;;;2.85;;
76292;SDS011;67256;51.154;4.164;2023-02-18T06:49:42;11.30;;;3.15;;
76292;SDS011;67256;51.154;4.164;2023-02-18T06:52:08;13.77;;;2.72;;
76292;SDS011;67256;51.154;4.164;2023-02-18T06:54:34;13.52;;;3.28;;
76292;SDS011;67256;51.154;4.164;2023-02-18T06:57:00;11.82;;;1.83;;
76292;SDS011;67256;51.154;4.164;2023-02-18T06:59:26;13.35;;;3.15;;
76292;SDS011;67256;51.154;4.164;2023-02-18T07:01:52;13.05;;;3.03;;
76292;SDS011;67256;51.154;4.164;2023-02-18T07:04:18;12.43;;;2.40;;
76292;SDS011;67256;51.154;4.164;2023-02-18T07:06:44;11.45;;;2.00;;
76292;SDS011;67256;51.154;4.164;2023-02-18T07:09:09;11.32;;;3.38;;
76292;SDS011;67256;51.154;4.164;2023-02-18T07:11:35;12.32;;;2.17;;
76292;SDS011;67256;51.154;4.164;2023-02-18T07:14:01;13.75;;;2.65;;
76292;SDS011;67256;51.154;4.164;2023-02-18T07:16:27;16.42;;;2.65;;
76292;SDS011;67256;51.154;4.164;2023-02-18T07:18:53;12.77;;;3.13;;
76292;SDS011;67256;51.154;4.164;2023-02-18T07:21:18;15.02;;;2.85;;
76292;SDS011;67256;51.154;4.164;2023-02-18T07:23:45;12.05;;;2.50;;
76292;SDS011;67256;51.154;4.164;2023-02-18T07:26:11;7.03;;;1.90;;
76292;SDS011;67256;51.154;4.164;2023-02-18T07:28:38;11.00;;;3.65;;
76292;SDS011;67256;51.154;4.164;2023-02-18T07:31:04;12.25;;;2.88;;
76292;SDS011;67256;51.154;4.164;2023-02-18T07:33:31;12.25;;;2.63;;
76292;SDS011;67256;51.154;4.164;2023-02-18T07:35:58;11.30;;;2.33;;
76292;SDS011;67256;51.154;4.164;2023-02-18T07:38:25;11.00;;;2.28;;
76292;SDS011;67256;51.154;4.164;2023-02-18T07:40:52;13.25;;;2.90;;
76292;SDS011;67256;51.154;4.164;2023-02-18T07:43:18;16.98;;;2.53;;
76292;SDS011;67256;51.154;4.164;2023-02-18T07:45:45;12.63;;;3.03;;
76292;SDS011;67256;51.154;4.164;2023-02-18T07:48:11;12.07;;;2.22;;
76292;SDS011;67256;51.154;4.164;2023-02-18T07:50:41;10.25;;;2.17;;
76292;SDS011;67256;51.154;4.164;2023-02-18T07:53:09;13.10;;;2.53;;
76292;SDS011;67256;51.154;4.164;2023-02-18T07:55:35;19.15;;;2.92;;
76292;SDS011;67256;51.154;4.164;2023-02-18T07:58:13;9.52;;;2.38;;
76292;SDS011;67256;51.154;4.164;2023-02-18T08:00:47;11.57;;;2.70;;
76292;SDS011;67256;51.154;4.164;2023-02-18T08:03:14;8.35;;;1.98;;
76292;SDS011;67256;51.154;4.164;2023-02-18T08:05:41;12.13;;;2.72;;
76292;SDS011;67256;51.154;4.164;2023-02-18T08:08:09;12.38;;;2.22;;
76292;SDS011;67256;51.154;4.164;2023-02-18T08:10:37;9.10;;;1.63;;
76292;SDS011;67256;51.154;4.164;2023-02-18T08:13:03;13.48;;;2.42;;
76292;SDS011;67256;51.154;4.164;2023-02-18T08:15:29;10.70;;;2.38;;
76292;SDS011;67256;51.154;4.164;2023-02-18T08:17:55;21.05;;;2.53;;
76292;SDS011;67256;51.154;4.164;2023-02-18T08:20:20;12.63;;;2.10;;
76292;SDS011;67256;51.154;4.164;2023-02-18T08:22:46;10.77;;;2.28;;
76292;SDS011;67256;51.154;4.164;2023-02-18T08:25:12;8.85;;;2.67;;
76292;SDS011;67256;51.154;4.164;2023-02-18T08:27:38;10.38;;;1.55;;
76292;SDS011;67256;51.154;4.164;2023-02-18T08:30:04;9.50;;;1.90;;
76292;SDS011;67256;51.154;4.164;2023-02-18T08:32:30;7.70;;;2.05;;
76292;SDS011;67256;51.154;4.164;2023-02-18T08:34:56;9.50;;;1.80;;
76292;SDS011;67256;51.154;4.164;2023-02-18T08:37:22;8.73;;;1.77;;
76292;SDS011;67256;51.154;4.164;2023-02-18T08:39:48;9.10;;;1.90;;
76292;SDS011;67256;51.154;4.164;2023-02-18T08:42:14;8.25;;;1.77;;
76292;SDS011;67256;51.154;4.164;2023-02-18T08:44:40;6.88;;;1.70;;
76292;SDS011;67256;51.154;4.164;2023-02-18T08:47:06;10.80;;;2.00;;
76292;SDS011;67256;51.154;4.164;2023-02-18T08:49:31;12.88;;;2.20;;
76292;SDS011;67256;51.154;4.164;2023-02-18T08:51:57;9.63;;;2.42;;
76292;SDS011;67256;51.154;4.164;2023-02-18T08:54:23;7.13;;;1.90;;
76292;SDS011;67256;51.154;4.164;2023-02-18T08:56:52;12.93;;;3.33;;
76292;SDS011;67256;51.154;4.164;2023-02-18T08:59:22;11.15;;;1.63;;
76292;SDS011;67256;51.154;4.164;2023-02-18T09:01:48;13.15;;;2.20;;
76292;SDS011;67256;51.154;4.164;2023-02-18T09:04:14;9.30;;;1.70;;
76292;SDS011;67256;51.154;4.164;2023-02-18T09:06:40;9.60;;;2.67;;
76292;SDS011;67256;51.154;4.164;2023-02-18T09:09:06;10.18;;;2.22;;
76292;SDS011;67256;51.154;4.164;2023-02-18T09:11:32;14.48;;;2.47;;
76292;SDS011;67256;51.154;4.164;2023-02-18T09:13:58;9.30;;;2.22;;
76292;SDS011;67256;51.154;4.164;2023-02-18T09:16:24;9.43;;;1.92;;
76292;SDS011;67256;51.154;4.164;2023-02-18T09:18:52;9.65;;;1.60;;
76292;SDS011;67256;51.154;4.164;2023-02-18T09:21:18;10.18;;;1.90;;
76292;SDS011;67256;51.154;4.164;2023-02-18T09:23:44;6.90;;;1.92;;
76292;SDS011;67256;51.154;4.164;2023-02-18T09:26:12;8.65;;;1.83;;
76292;SDS011;67256;51.154;4.164;2023-02-18T09:28:39;18.23;;;2.55;;
76292;SDS011;67256;51.154;4.164;2023-02-18T09:31:06;10.95;;;1.95;;
76292;SDS011;67256;51.154;4.164;2023-02-18T09:33:40;13.82;;;2.60;;
76292;SDS011;67256;51.154;4.164;2023-02-18T09:36:08;11.02;;;2.00;;
76292;SDS011;67256;51.154;4.164;2023-02-18T09:38:34;9.68;;;1.90;;
76292;SDS011;67256;51.154;4.164;2023-02-18T09:41:00;9.77;;;1.98;;
76292;SDS011;67256;51.154;4.164;2023-02-18T09:43:41;10.02;;;2.13;;
76292;SDS011;67256;51.154;4.164;2023-02-18T09:46:17;9.23;;;2.53;;
76292;SDS011;67256;51.154;4.164;2023-02-18T09:48:47;12.35;;;3.03;;
76292;SDS011;67256;51.154;4.164;2023-02-18T09:51:14;10.55;;;2.28;;
76292;SDS011;67256;51.154;4.164;2023-02-18T09:53:41;11.80;;;2.58;;
76292;SDS011;67256;51.154;4.164;2023-02-18T09:56:12;10.02;;;2.35;;
76292;SDS011;67256;51.154;4.164;2023-02-18T09:58:46;11.05;;;2.33;;
76292;SDS011;67256;51.154;4.164;2023-02-18T10:01:19;15.27;;;2.35;;
76292;SDS011;67256;51.154;4.164;2023-02-18T10:03:52;12.00;;;2.38;;
76292;SDS011;67256;51.154;4.164;2023-02-18T10:06:21;10.05;;;2.30;;
76292;SDS011;67256;51.154;4.164;2023-02-18T10:08:50;11.15;;;1.98;;
76292;SDS011;67256;51.154;4.164;2023-02-18T10:13:52;9.63;;;2.20;;
76292;SDS011;67256;51.154;4.164;2023-02-18T10:16:19;11.32;;;1.90;;
76292;SDS011;67256;51.154;4.164;2023-02-18T10:18:47;10.10;;;1.92;;
76292;SDS011;67256;51.154;4.164;2023-02-18T10:21:21;11.00;;;1.95;;
76292;SDS011;67256;51.154;4.164;2023-02-18T10:26:48;11.27;;;2.10;;
76292;SDS011;67256;51.154;4.164;2023-02-18T10:29:15;9.18;;;2.47;;
76292;SDS011;67256;51.154;4.164;2023-02-18T10:32:06;13.65;;;3.28;;
76292;SDS011;67256;51.154;4.164;2023-02-18T10:37:29;11.15;;;2.88;;
76292;SDS011;67256;51.154;4.164;2023-02-18T10:51:23;10.52;;;2.85;;
76292;SDS011;67256;51.154;4.164;2023-02-18T10:53:52;9.90;;;2.05;;
76292;SDS011;67256;51.154;4.164;2023-02-18T10:59:00;18.10;;;3.55;;
76292;SDS011;67256;51.154;4.164;2023-02-18T11:01:56;11.02;;;2.75;;
76292;SDS011;67256;51.154;4.164;2023-02-18T11:04:38;16.80;;;3.17;;
76292;SDS011;67256;51.154;4.164;2023-02-18T11:14:42;15.02;;;3.17;;
76292;SDS011;67256;51.154;4.164;2023-02-18T11:17:27;12.90;;;2.75;;
76292;SDS011;67256;51.154;4.164;2023-02-18T11:19:56;14.52;;;3.20;;
76292;SDS011;67256;51.154;4.164;2023-02-18T11:22:29;11.63;;;2.97;;
76292;SDS011;67256;51.154;4.164;2023-02-18T11:25:00;11.90;;;2.92;;
76292;SDS011;67256;51.154;4.164;2023-02-18T11:27:42;13.27;;;3.17;;
76292;SDS011;67256;51.154;4.164;2023-02-18T11:30:20;13.23;;;2.72;;
76292;SDS011;67256;51.154;4.164;2023-02-18T11:32:51;17.45;;;3.00;;
76292;SDS011;67256;51.154;4.164;2023-02-18T11:35:24;11.38;;;2.60;;
76292;SDS011;67256;51.154;4.164;2023-02-18T11:37:55;11.13;;;3.38;;
76292;SDS011;67256;51.154;4.164;2023-02-18T11:40:24;9.18;;;2.90;;
76292;SDS011;67256;51.154;4.164;2023-02-18T11:43:14;9.27;;;2.72;;
76292;SDS011;67256;51.154;4.164;2023-02-18T11:45:42;13.52;;;2.80;;
76292;SDS011;67256;51.154;4.164;2023-02-18T11:48:13;15.10;;;3.55;;
76292;SDS011;67256;51.154;4.164;2023-02-18T11:50:41;15.48;;;2.80;;
76292;SDS011;67256;51.154;4.164;2023-02-18T11:55:55;13.68;;;3.72;;
76292;SDS011;67256;51.154;4.164;2023-02-18T11:58:25;12.50;;;2.85;;
76292;SDS011;67256;51.154;4.164;2023-02-18T12:00:55;12.95;;;2.72;;
76292;SDS011;67256;51.154;4.164;2023-02-18T12:03:39;17.98;;;3.00;;
76292;SDS011;67256;51.154;4.164;2023-02-18T12:06:32;9.05;;;2.65;;
76292;SDS011;67256;51.154;4.164;2023-02-18T12:11:59;15.80;;;2.95;;
76292;SDS011;67256;51.154;4.164;2023-02-18T12:14:30;12.23;;;2.88;;
76292;SDS011;67256;51.154;4.164;2023-02-18T12:25:04;11.98;;;3.55;;
76292;SDS011;67256;51.154;4.164;2023-02-18T12:27:43;11.52;;;3.60;;
76292;SDS011;67256;51.154;4.164;2023-02-18T12:30:35;14.65;;;3.33;;
76292;SDS011;67256;51.154;4.164;2023-02-18T12:47:45;13.35;;;3.30;;
76292;SDS011;67256;51.154;4.164;2023-02-18T12:50:36;17.60;;;3.78;;
76292;SDS011;67256;51.154;4.164;2023-02-18T12:53:06;9.82;;;3.22;;
76292;SDS011;67256;51.154;4.164;2023-02-18T12:56:01;11.45;;;3.47;;
76292;SDS011;67256;51.154;4.164;2023-02-18T13:01:33;7.43;;;3.15;;
76292;SDS011;67256;51.154;4.164;2023-02-18T13:04:23;12.23;;;2.75;;
76292;SDS011;67256;51.154;4.164;2023-02-18T13:09:33;9.02;;;2.90;;
76292;SDS011;67256;51.154;4.164;2023-02-18T13:15:00;9.98;;;3.20;;
76292;SDS011;67256;51.154;4.164;2023-02-18T13:17:40;12.52;;;3.67;;
76292;SDS011;67256;51.154;4.164;2023-02-18T13:22:50;13.93;;;3.63;;
76292;SDS011;67256;51.154;4.164;2023-02-18T13:25:18;12.80;;;4.22;;
76292;SDS011;67256;51.154;4.164;2023-02-18T13:27:47;12.82;;;4.35;;
76292;SDS011;67256;51.154;4.164;2023-02-18T13:38:47;15.32;;;4.03;;
76292;SDS011;67256;51.154;4.164;2023-02-18T13:41:18;14.90;;;3.45;;
76292;SDS011;67256;51.154;4.164;2023-02-18T13:43:44;13.18;;;3.25;;
76292;SDS011;67256;51.154;4.164;2023-02-18T13:46:21;11.98;;;3.95;;
76292;SDS011;67256;51.154;4.164;2023-02-18T13:56:39;13.68;;;3.70;;
76292;SDS011;67256;51.154;4.164;2023-02-18T13:59:09;16.42;;;4.18;;
76292;SDS011;67256;51.154;4.164;2023-02-18T14:01:43;15.73;;;3.47;;
76292;SDS011;67256;51.154;4.164;2023-02-18T14:09:42;11.57;;;3.20;;
76292;SDS011;67256;51.154;4.164;2023-02-18T14:14:40;12.85;;;3.47;;
76292;SDS011;67256;51.154;4.164;2023-02-18T14:19:55;14.23;;;4.03;;
76292;SDS011;67256;51.154;4.164;2023-02-18T14:25:20;20.42;;;3.38;;
76292;SDS011;67256;51.154;4.164;2023-02-18T14:27:50;12.07;;;3.97;;
76292;SDS011;67256;51.154;4.164;2023-02-18T14:32:47;11.90;;;3.10;;
76292;SDS011;67256;51.154;4.164;2023-02-18T14:46:29;7.15;;;2.58;;
76292;SDS011;67256;51.154;4.164;2023-02-18T14:51:46;8.65;;;3.17;;
76292;SDS011;67256;51.154;4.164;2023-02-18T14:54:14;11.73;;;3.15;;
76292;SDS011;67256;51.154;4.164;2023-02-18T14:57:03;12.27;;;3.45;;
76292;SDS011;67256;51.154;4.164;2023-02-18T14:59:35;10.35;;;2.90;;
76292;SDS011;67256;51.154;4.164;2023-02-18T15:02:37;18.85;;;4.22;;
76292;SDS011;67256;51.154;4.164;2023-02-18T15:08:00;15.60;;;3.42;;
76292;SDS011;67256;51.154;4.164;2023-02-18T15:10:36;13.75;;;3.22;;
76292;SDS011;67256;51.154;4.164;2023-02-18T15:13:07;8.75;;;2.90;;
76292;SDS011;67256;51.154;4.164;2023-02-18T15:15:52;17.08;;;3.67;;
76292;SDS011;67256;51.154;4.164;2023-02-18T15:18:35;10.90;;;4.30;;
76292;SDS011;67256;51.154;4.164;2023-02-18T15:21:06;7.45;;;2.42;;
76292;SDS011;67256;51.154;4.164;2023-02-18T15:23:34;12.65;;;3.30;;
76292;SDS011;67256;51.154;4.164;2023-02-18T15:26:03;9.35;;;3.55;;
76292;SDS011;67256;51.154;4.164;2023-02-18T15:28:38;13.90;;;3.17;;
76292;SDS011;67256;51.154;4.164;2023-02-18T15:31:15;11.68;;;3.92;;
76292;SDS011;67256;51.154;4.164;2023-02-18T15:33:45;17.52;;;5.28;;
76292;SDS011;67256;51.154;4.164;2023-02-18T15:36:12;12.68;;;3.70;;
76292;SDS011;67256;51.154;4.164;2023-02-18T15:38:39;22.77;;;4.85;;
76292;SDS011;67256;51.154;4.164;2023-02-18T15:41:15;12.27;;;3.83;;
76292;SDS011;67256;51.154;4.164;2023-02-18T15:43:51;15.15;;;3.50;;
76292;SDS011;67256;51.154;4.164;2023-02-18T15:46:24;12.40;;;4.07;;
76292;SDS011;67256;51.154;4.164;2023-02-18T15:48:51;13.85;;;4.18;;
76292;SDS011;67256;51.154;4.164;2023-02-18T15:51:21;10.50;;;3.20;;
76292;SDS011;67256;51.154;4.164;2023-02-18T15:53:53;12.65;;;3.38;;
76292;SDS011;67256;51.154;4.164;2023-02-18T15:56:28;12.63;;;3.58;;
76292;SDS011;67256;51.154;4.164;2023-02-18T15:59:08;10.55;;;3.30;;
76292;SDS011;67256;51.154;4.164;2023-02-18T16:01:46;12.55;;;3.63;;
76292;SDS011;67256;51.154;4.164;2023-02-18T16:04:19;12.90;;;3.88;;
76292;SDS011;67256;51.154;4.164;2023-02-18T16:06:50;11.05;;;3.53;;
76292;SDS011;67256;51.154;4.164;2023-02-18T16:09:33;10.85;;;3.53;;
76292;SDS011;67256;51.154;4.164;2023-02-18T16:12:04;11.35;;;3.45;;
76292;SDS011;67256;51.154;4.164;2023-02-18T16:15:08;8.30;;;3.38;;
76292;SDS011;67256;51.154;4.164;2023-02-18T16:17:41;14.35;;;4.25;;
76292;SDS011;67256;51.154;4.164;2023-02-18T16:22:50;11.73;;;3.17;;
76292;SDS011;67256;51.154;4.164;2023-02-18T16:26:07;7.80;;;3.90;;
76292;SDS011;67256;51.154;4.164;2023-02-18T16:30:46;12.32;;;3.10;;
76292;SDS011;67256;51.154;4.164;2023-02-18T16:33:12;11.55;;;3.38;;
76292;SDS011;67256;51.154;4.164;2023-02-18T16:35:38;13.00;;;3.72;;
76292;SDS011;67256;51.154;4.164;2023-02-18T16:38:04;13.52;;;3.13;;
76292;SDS011;67256;51.154;4.164;2023-02-18T16:40:31;6.95;;;3.08;;
76292;SDS011;67256;51.154;4.164;2023-02-18T16:43:26;8.00;;;3.10;;
76292;SDS011;67256;51.154;4.164;2023-02-18T16:45:54;15.70;;;4.20;;
76292;SDS011;67256;51.154;4.164;2023-02-18T16:48:40;9.65;;;3.70;;
76292;SDS011;67256;51.154;4.164;2023-02-18T16:51:12;9.93;;;3.58;;
76292;SDS011;67256;51.154;4.164;2023-02-18T16:53:47;10.35;;;3.42;;
76292;SDS011;67256;51.154;4.164;2023-02-18T16:56:16;12.73;;;3.63;;
76292;SDS011;67256;51.154;4.164;2023-02-18T16:58:43;9.35;;;3.63;;
76292;SDS011;67256;51.154;4.164;2023-02-18T17:01:26;12.43;;;4.60;;
76292;SDS011;67256;51.154;4.164;2023-02-18T17:03:55;13.82;;;4.32;;
76292;SDS011;67256;51.154;4.164;2023-02-18T17:06:23;11.30;;;4.20;;
76292;SDS011;67256;51.154;4.164;2023-02-18T17:08:49;9.95;;;4.18;;
76292;SDS011;67256;51.154;4.164;2023-02-18T17:11:16;12.35;;;5.10;;
76292;SDS011;67256;51.154;4.164;2023-02-18T17:14:03;13.00;;;4.55;;
76292;SDS011;67256;51.154;4.164;2023-02-18T17:16:29;19.88;;;6.03;;
76292;SDS011;67256;51.154;4.164;2023-02-18T17:18:55;17.80;;;5.95;;
76292;SDS011;67256;51.154;4.164;2023-02-18T17:21:22;10.93;;;5.47;;
76292;SDS011;67256;51.154;4.164;2023-02-18T17:23:50;10.07;;;5.07;;
76292;SDS011;67256;51.154;4.164;2023-02-18T17:26:23;12.68;;;6.30;;
76292;SDS011;67256;51.154;4.164;2023-02-18T17:28:51;10.88;;;5.57;;
76292;SDS011;67256;51.154;4.164;2023-02-18T17:31:19;16.60;;;5.75;;
76292;SDS011;67256;51.154;4.164;2023-02-18T17:33:49;11.85;;;5.03;;
76292;SDS011;67256;51.154;4.164;2023-02-18T17:36:17;16.23;;;6.10;;
76292;SDS011;67256;51.154;4.164;2023-02-18T17:38:43;18.02;;;6.20;;
76292;SDS011;67256;51.154;4.164;2023-02-18T17:41:09;11.50;;;4.93;;
76292;SDS011;67256;51.154;4.164;2023-02-18T17:43:37;10.57;;;4.93;;
76292;SDS011;67256;51.154;4.164;2023-02-18T17:46:04;12.75;;;5.00;;